createdAt,value
2023-03-31T00:00:47.252Z,1.63
2023-03-31T00:03:21.708Z,2.25
2023-03-31T00:05:49.047Z,1.48
2023-03-31T00:08:15.717Z,1.63
2023-03-31T00:10:46.625Z,2.00
2023-03-31T00:13:13.330Z,1.90
2023-03-31T00:15:40.322Z,2.17
2023-03-31T00:18:07.160Z,1.80
2023-03-31T00:20:37.870Z,1.83
2023-03-31T00:23:10.827Z,2.40
2023-03-31T00:25:41.691Z,1.95
2023-03-31T00:28:08.480Z,1.70
2023-03-31T00:30:35.206Z,2.03
2023-03-31T00:33:02.032Z,1.95
2023-03-31T00:35:28.821Z,2.05
2023-03-31T00:37:57.849Z,2.10
2023-03-31T00:40:24.803Z,1.88
2023-03-31T00:42:51.919Z,2.35
2023-03-31T00:45:25.337Z,1.85
2023-03-31T00:48:10.348Z,1.60
2023-03-31T00:50:49.343Z,2.40
2023-03-31T00:53:20.278Z,1.88
2023-03-31T00:55:54.625Z,2.13
2023-03-31T00:58:22.904Z,2.30
2023-03-31T01:00:52.913Z,2.28
2023-03-31T01:03:22.562Z,2.58
2023-03-31T01:05:55.514Z,2.83
2023-03-31T01:08:26.233Z,2.20
2023-03-31T01:10:57.090Z,1.98
2023-03-31T01:13:25.944Z,2.53
2023-03-31T01:15:52.872Z,2.40
2023-03-31T01:18:21.647Z,2.47
2023-03-31T01:21:18.583Z,2.60
2023-03-31T01:24:17.447Z,2.30
2023-03-31T01:27:01.659Z,2.53
2023-03-31T01:29:37.024Z,2.28
2023-03-31T01:32:25.346Z,2.20
2023-03-31T01:35:10.650Z,2.55
2023-03-31T01:37:56.403Z,2.20
2023-03-31T01:40:38.175Z,2.47
2023-03-31T01:43:26.656Z,3.35
2023-03-31T01:46:06.796Z,2.75
2023-03-31T01:48:39.701Z,2.47
2023-03-31T01:51:26.991Z,2.05
2023-03-31T01:54:21.021Z,2.30
2023-03-31T01:57:05.189Z,2.42
2023-03-31T01:59:41.181Z,3.15
2023-03-31T02:02:25.320Z,2.85
2023-03-31T02:05:08.901Z,3.03
2023-03-31T02:07:41.541Z,2.67
2023-03-31T02:10:11.324Z,3.08
2023-03-31T02:12:40.961Z,2.83
2023-03-31T02:15:16.025Z,2.75
2023-03-31T02:17:47.243Z,2.97
2023-03-31T02:20:18.264Z,2.63
2023-03-31T02:22:53.390Z,3.10
2023-03-31T02:25:24.856Z,2.75
2023-03-31T02:28:01.873Z,2.55
2023-03-31T02:30:49.409Z,2.88
2023-03-31T02:33:16.690Z,2.88
2023-03-31T02:35:43.504Z,2.78
2023-03-31T02:38:11.782Z,2.80
2023-03-31T02:40:38.462Z,3.10
2023-03-31T02:43:05.471Z,3.00
2023-03-31T02:45:40.053Z,2.70
2023-03-31T02:48:16.158Z,2.78
2023-03-31T02:50:51.456Z,2.88
2023-03-31T02:53:52.869Z,2.92
2023-03-31T02:56:39.463Z,2.72
2023-03-31T02:59:24.631Z,2.60
2023-03-31T03:02:08.321Z,2.75
2023-03-31T03:05:05.978Z,3.00
2023-03-31T03:07:46.620Z,3.15
2023-03-31T03:10:50.869Z,3.15
2023-03-31T03:13:35.728Z,2.65
2023-03-31T03:16:41.571Z,2.75
2023-03-31T03:19:08.776Z,2.80
2023-03-31T03:21:35.742Z,3.15
2023-03-31T03:24:02.517Z,3.10
2023-03-31T03:26:29.271Z,4.03
2023-03-31T03:28:57.118Z,3.65
2023-03-31T03:31:26.159Z,3.05
2023-03-31T03:33:53.668Z,2.83
2023-03-31T03:36:20.681Z,3.38
2023-03-31T03:38:47.366Z,2.88
2023-03-31T03:41:14.042Z,2.75
2023-03-31T03:43:41.052Z,2.83
2023-03-31T03:46:07.880Z,3.00
2023-03-31T03:48:34.763Z,3.40
2023-03-31T03:51:01.773Z,2.92
2023-03-31T03:53:28.836Z,3.17
2023-03-31T03:55:55.662Z,2.97
2023-03-31T03:58:22.469Z,3.13
2023-03-31T04:00:49.329Z,3.97
2023-03-31T04:03:16.674Z,3.05
2023-03-31T04:05:43.554Z,2.83
2023-03-31T04:08:10.468Z,3.47
2023-03-31T04:10:37.184Z,3.55
2023-03-31T04:13:03.927Z,3.17
2023-03-31T04:15:30.930Z,3.53
2023-03-31T04:17:58.207Z,3.10
2023-03-31T04:20:27.807Z,3.65
2023-03-31T04:22:54.838Z,3.85
2023-03-31T04:25:22.744Z,3.78
2023-03-31T04:27:55.880Z,3.58
2023-03-31T04:30:24.576Z,3.58
2023-03-31T04:32:53.494Z,4.03
2023-03-31T04:35:24.590Z,3.85
2023-03-31T04:37:58.632Z,4.50
2023-03-31T04:40:25.817Z,4.45
2023-03-31T04:42:52.578Z,4.38
2023-03-31T04:45:19.283Z,4.25
2023-03-31T04:47:45.942Z,5.05
2023-03-31T04:50:16.109Z,5.85
2023-03-31T04:52:43.583Z,4.47
2023-03-31T04:55:10.637Z,4.68
2023-03-31T04:57:37.383Z,3.95
2023-03-31T05:00:07.944Z,4.60
2023-03-31T05:02:34.778Z,3.92
2023-03-31T05:05:01.577Z,4.68
2023-03-31T05:07:28.314Z,4.70
2023-03-31T05:09:55.050Z,4.45
2023-03-31T05:12:21.800Z,5.32
2023-03-31T05:14:48.505Z,5.05
2023-03-31T05:17:17.853Z,5.35
2023-03-31T05:19:44.820Z,4.88
2023-03-31T05:22:11.604Z,5.55
2023-03-31T05:24:39.657Z,5.13
2023-03-31T05:27:06.621Z,4.88
2023-03-31T05:29:33.280Z,4.53
2023-03-31T05:31:59.956Z,4.50
2023-03-31T05:34:26.660Z,5.93
2023-03-31T05:36:53.997Z,5.75
2023-03-31T05:39:21.236Z,6.05
2023-03-31T05:41:48.088Z,5.72
2023-03-31T05:44:14.968Z,6.32
2023-03-31T05:46:42.130Z,5.47
2023-03-31T05:49:08.912Z,5.07
2023-03-31T05:51:35.553Z,4.60
2023-03-31T05:54:02.540Z,5.47
2023-03-31T05:56:29.222Z,4.30
2023-03-31T05:58:55.998Z,4.75
2023-03-31T06:01:23.564Z,4.95
2023-03-31T06:03:50.688Z,4.75
2023-03-31T06:06:18.154Z,5.55
2023-03-31T06:08:46.902Z,5.80
2023-03-31T06:11:22.001Z,5.50
2023-03-31T06:13:49.357Z,5.55
2023-03-31T06:16:17.453Z,5.45
2023-03-31T06:18:45.010Z,4.78
2023-03-31T06:21:14.607Z,4.35
2023-03-31T06:23:41.697Z,4.82
2023-03-31T06:26:08.798Z,4.45
2023-03-31T06:28:36.333Z,3.75
2023-03-31T06:31:06.113Z,3.42
2023-03-31T06:33:34.232Z,2.92
2023-03-31T06:36:04.062Z,2.78
2023-03-31T06:38:31.750Z,2.10
2023-03-31T06:40:58.443Z,1.95
2023-03-31T06:43:25.326Z,1.85
2023-03-31T06:45:55.967Z,2.22
2023-03-31T06:48:24.079Z,2.33
2023-03-31T06:50:51.661Z,1.75
2023-03-31T06:53:18.432Z,1.55
2023-03-31T06:55:45.185Z,1.45
2023-03-31T06:58:12.392Z,1.60
2023-03-31T07:00:39.384Z,2.10
2023-03-31T07:03:06.950Z,2.10
2023-03-31T07:05:33.741Z,1.98
2023-03-31T07:08:01.438Z,1.92
2023-03-31T07:10:29.800Z,2.03
2023-03-31T07:12:56.742Z,1.40
2023-03-31T07:15:24.516Z,1.67
2023-03-31T07:17:54.008Z,1.30
2023-03-31T07:20:21.174Z,1.77
2023-03-31T07:22:49.120Z,1.60
2023-03-31T07:25:17.464Z,2.40
2023-03-31T07:27:44.703Z,1.90
2023-03-31T07:30:18.076Z,2.20
2023-03-31T07:32:48.723Z,2.42
2023-03-31T07:35:16.071Z,1.92
2023-03-31T07:37:45.163Z,2.30
2023-03-31T07:40:18.450Z,1.83
2023-03-31T07:42:49.101Z,2.05
2023-03-31T07:45:16.943Z,1.92
2023-03-31T07:47:46.395Z,1.60
2023-03-31T07:50:15.035Z,1.58
2023-03-31T07:52:44.730Z,1.20
2023-03-31T07:55:13.578Z,1.40
2023-03-31T07:57:41.475Z,1.90
2023-03-31T08:00:12.463Z,1.85
2023-03-31T08:02:41.439Z,1.63
2023-03-31T08:05:09.370Z,2.00
2023-03-31T08:07:39.605Z,1.35
2023-03-31T08:10:11.011Z,1.08
2023-03-31T08:12:37.717Z,1.23
2023-03-31T08:15:05.253Z,1.42
2023-03-31T08:17:32.010Z,1.30
2023-03-31T08:20:02.355Z,1.48
2023-03-31T08:22:31.961Z,1.10
2023-03-31T08:24:58.686Z,1.70
2023-03-31T08:27:26.522Z,1.30
2023-03-31T08:29:53.239Z,1.55
2023-03-31T08:32:24.199Z,1.40
2023-03-31T08:34:51.632Z,1.17
2023-03-31T08:37:18.379Z,1.17
2023-03-31T08:39:45.940Z,1.58
2023-03-31T08:42:23.233Z,1.45
2023-03-31T08:45:21.657Z,1.52
2023-03-31T08:47:53.612Z,1.70
2023-03-31T08:50:25.904Z,1.60
2023-03-31T08:53:22.389Z,1.38
2023-03-31T08:55:51.961Z,1.38
2023-03-31T08:58:27.763Z,1.60
2023-03-31T09:01:07.968Z,1.90
2023-03-31T09:04:02.659Z,1.52
2023-03-31T09:06:41.293Z,1.63
2023-03-31T09:09:16.751Z,1.90
2023-03-31T09:11:54.987Z,1.80
2023-03-31T09:14:47.282Z,1.48
2023-03-31T09:17:43.451Z,1.50
2023-03-31T09:20:29.056Z,1.80
2023-03-31T09:23:17.612Z,1.85
2023-03-31T09:25:45.290Z,2.38
2023-03-31T09:28:22.416Z,2.65
2023-03-31T09:30:50.093Z,6.32
2023-03-31T09:33:32.059Z,3.83
2023-03-31T09:36:00.309Z,5.50
2023-03-31T09:38:29.656Z,7.72
2023-03-31T09:41:01.575Z,4.78
2023-03-31T09:43:31.556Z,5.82
2023-03-31T09:46:09.321Z,5.97
2023-03-31T09:48:37.638Z,5.25
2023-03-31T09:51:07.828Z,3.00
2023-03-31T09:53:50.406Z,2.53
2023-03-31T09:56:41.847Z,1.92
2023-03-31T09:59:17.892Z,1.83
2023-03-31T10:01:47.135Z,2.13
2023-03-31T10:04:24.167Z,1.58
2023-03-31T10:06:54.726Z,2.28
2023-03-31T10:09:25.523Z,1.45
2023-03-31T10:11:58.896Z,1.33
2023-03-31T10:14:32.523Z,1.05
2023-03-31T10:17:04.379Z,1.02
2023-03-31T10:19:37.765Z,0.70
2023-03-31T10:22:15.470Z,0.70
2023-03-31T10:24:44.877Z,0.60
2023-03-31T10:27:26.578Z,0.50
2023-03-31T10:29:55.429Z,0.57
2023-03-31T10:32:34.150Z,0.60
2023-03-31T10:35:16.057Z,0.32
2023-03-31T10:37:42.825Z,0.50
2023-03-31T10:40:25.294Z,0.73
2023-03-31T10:43:13.420Z,0.35
2023-03-31T10:45:51.754Z,0.50
2023-03-31T10:48:27.620Z,0.68
2023-03-31T10:50:58.991Z,0.60
2023-03-31T10:53:25.940Z,0.40
2023-03-31T10:56:24.817Z,0.30
2023-03-31T10:59:26.936Z,0.55
2023-03-31T11:02:15.491Z,0.80
2023-03-31T11:04:53.264Z,0.55
2023-03-31T11:07:40.621Z,0.60
2023-03-31T11:10:22.695Z,0.47
2023-03-31T11:13:07.559Z,0.50
2023-03-31T11:16:04.670Z,0.40
2023-03-31T11:18:34.782Z,0.32
2023-03-31T11:21:04.685Z,0.55
2023-03-31T11:23:54.511Z,0.50
2023-03-31T11:26:58.848Z,0.95
2023-03-31T11:29:42.652Z,0.35
2023-03-31T11:32:34.079Z,0.50
2023-03-31T11:35:04.902Z,0.70
2023-03-31T11:37:37.162Z,0.77
2023-03-31T11:40:22.998Z,1.15
2023-03-31T11:43:02.267Z,0.77
2023-03-31T11:45:35.758Z,0.50
2023-03-31T11:48:10.771Z,0.77
2023-03-31T11:50:40.883Z,0.50
2023-03-31T11:53:24.530Z,1.00
2023-03-31T11:55:54.428Z,0.85
2023-03-31T11:58:28.745Z,0.75
2023-03-31T12:01:07.219Z,1.10
2023-03-31T12:03:50.161Z,1.30
2023-03-31T12:06:21.480Z,1.17
2023-03-31T12:09:18.181Z,1.33
2023-03-31T12:12:10.642Z,1.20
2023-03-31T12:14:43.447Z,1.20
2023-03-31T12:17:20.263Z,1.13
2023-03-31T12:19:56.553Z,1.20
2023-03-31T12:22:29.078Z,1.83
2023-03-31T12:24:56.046Z,1.55
2023-03-31T12:27:49.638Z,1.95
2023-03-31T12:30:28.476Z,1.95
2023-03-31T12:33:18.726Z,3.72
2023-03-31T12:35:54.752Z,2.30
2023-03-31T12:39:06.805Z,2.33
2023-03-31T12:42:12.482Z,1.70
2023-03-31T12:44:52.364Z,1.50
2023-03-31T12:47:29.764Z,1.77
2023-03-31T12:50:27.145Z,1.55
2023-03-31T12:53:30.321Z,1.20
2023-03-31T12:55:58.053Z,1.23
2023-03-31T12:58:24.965Z,0.65
2023-03-31T13:01:16.192Z,0.60
2023-03-31T13:04:20.386Z,0.73
2023-03-31T13:06:54.020Z,0.45
2023-03-31T13:09:43.688Z,0.80
2023-03-31T13:12:22.245Z,0.32
2023-03-31T13:14:53.762Z,0.50
2023-03-31T13:17:30.788Z,0.73
2023-03-31T13:20:16.973Z,1.10
2023-03-31T13:22:52.673Z,0.90
2023-03-31T13:25:42.816Z,0.90
2023-03-31T13:28:32.291Z,0.50
2023-03-31T13:31:10.621Z,0.73
2023-03-31T13:33:45.770Z,0.50
2023-03-31T13:36:18.404Z,0.43
2023-03-31T13:39:27.995Z,0.60
2023-03-31T13:42:13.763Z,0.80
2023-03-31T13:44:54.014Z,2.05
2023-03-31T13:47:34.128Z,1.02
2023-03-31T13:50:38.066Z,1.00
2023-03-31T13:53:16.854Z,0.80
2023-03-31T13:55:56.381Z,0.75
2023-03-31T13:58:35.159Z,0.73
2023-03-31T14:01:39.561Z,0.70
2023-03-31T14:04:14.565Z,0.70
2023-03-31T14:06:49.858Z,0.55
2023-03-31T14:09:29.320Z,1.20
2023-03-31T14:11:59.155Z,0.80
2023-03-31T14:14:27.013Z,0.65
2023-03-31T14:16:57.964Z,0.90
2023-03-31T14:19:53.389Z,1.13
2023-03-31T14:22:32.188Z,1.20
2023-03-31T14:25:18.524Z,1.20
2023-03-31T14:28:18.577Z,1.17
2023-03-31T14:31:35.296Z,0.70
2023-03-31T14:34:39.959Z,1.13
2023-03-31T14:37:21.211Z,0.80
2023-03-31T14:39:55.105Z,1.23
2023-03-31T14:42:27.013Z,0.73
2023-03-31T14:44:58.562Z,0.70
2023-03-31T14:47:30.642Z,0.80
2023-03-31T14:50:05.190Z,0.95
2023-03-31T14:52:35.568Z,0.70
2023-03-31T14:55:02.359Z,0.68
2023-03-31T14:57:35.939Z,0.57
2023-03-31T15:00:08.258Z,0.70
2023-03-31T15:02:42.461Z,0.63
2023-03-31T15:05:19.825Z,0.73
2023-03-31T15:07:46.643Z,0.50
2023-03-31T15:10:20.387Z,0.95
2023-03-31T15:12:48.562Z,0.98
2023-03-31T15:15:16.294Z,1.23
2023-03-31T15:17:45.814Z,0.77
2023-03-31T15:20:28.587Z,0.88
2023-03-31T15:22:59.582Z,1.30
2023-03-31T15:25:32.793Z,0.95
2023-03-31T15:28:13.013Z,1.25
2023-03-31T15:30:40.124Z,0.85
2023-03-31T15:35:38.443Z,1.10
2023-03-31T15:38:06.383Z,1.00
2023-03-31T15:40:40.137Z,1.10
2023-03-31T15:43:25.324Z,0.75
2023-03-31T15:45:57.691Z,0.63
2023-03-31T15:48:30.748Z,1.00
2023-03-31T15:51:02.692Z,0.95
2023-03-31T15:53:31.350Z,0.88
2023-03-31T15:56:02.181Z,0.50
2023-03-31T15:58:54.725Z,0.60
2023-03-31T16:01:23.160Z,1.15
2023-03-31T16:03:53.769Z,0.73
2023-03-31T16:06:39.059Z,0.75
2023-03-31T16:09:09.024Z,0.75
2023-03-31T16:11:46.688Z,0.60
2023-03-31T16:14:19.969Z,0.63
2023-03-31T16:16:51.902Z,0.68
2023-03-31T16:19:21.065Z,0.40
2023-03-31T16:24:30.363Z,0.43
2023-03-31T16:27:09.254Z,0.60
2023-03-31T16:29:37.961Z,1.30
2023-03-31T16:32:12.171Z,1.60
2023-03-31T16:34:56.894Z,1.70
2023-03-31T16:37:24.340Z,1.95
2023-03-31T16:39:50.980Z,0.65
2023-03-31T16:42:18.413Z,0.70
2023-03-31T16:44:52.862Z,0.90
2023-03-31T16:47:35.181Z,0.85
2023-03-31T16:50:07.179Z,1.42
2023-03-31T16:52:34.273Z,1.60
2023-03-31T16:55:01.358Z,0.95
2023-03-31T16:57:28.151Z,1.33
2023-03-31T16:59:57.390Z,0.88
2023-03-31T17:02:25.068Z,1.20
2023-03-31T17:04:54.246Z,0.95
2023-03-31T17:07:23.359Z,1.02
2023-03-31T17:09:49.994Z,1.02
2023-03-31T17:12:16.715Z,1.50
2023-03-31T17:14:43.378Z,0.88
2023-03-31T17:17:10.138Z,1.30
2023-03-31T17:19:36.980Z,1.27
2023-03-31T17:22:03.911Z,0.93
2023-03-31T17:24:30.718Z,1.10
2023-03-31T17:26:57.754Z,1.17
2023-03-31T17:29:24.931Z,1.17
2023-03-31T17:31:51.696Z,1.38
2023-03-31T17:34:18.344Z,1.00
2023-03-31T17:36:45.147Z,1.20
2023-03-31T17:39:12.137Z,1.02
2023-03-31T17:41:38.839Z,0.93
2023-03-31T17:44:07.765Z,1.20
2023-03-31T17:46:35.043Z,1.63
2023-03-31T17:49:01.816Z,1.40
2023-03-31T17:51:28.950Z,2.70
2023-03-31T17:53:56.385Z,2.10
2023-03-31T17:56:25.487Z,3.90
2023-03-31T17:58:53.457Z,1.40
2023-03-31T18:01:20.404Z,1.08
2023-03-31T18:03:47.720Z,1.35
2023-03-31T18:06:15.394Z,1.27
2023-03-31T18:08:42.724Z,1.05
2023-03-31T18:11:09.751Z,1.70
2023-03-31T18:13:37.122Z,1.23
2023-03-31T18:16:05.043Z,1.00
2023-03-31T18:18:32.711Z,2.10
2023-03-31T18:21:04.457Z,1.45
2023-03-31T18:23:32.049Z,1.75
2023-03-31T18:25:58.791Z,1.40
2023-03-31T18:28:25.589Z,1.25
2023-03-31T18:30:53.255Z,0.65
2023-03-31T18:33:20.305Z,1.08
2023-03-31T18:35:47.130Z,1.00
2023-03-31T18:38:13.863Z,1.00
2023-03-31T18:40:47.963Z,1.30
2023-03-31T18:43:14.761Z,1.08
2023-03-31T18:45:42.150Z,1.27
2023-03-31T18:48:08.865Z,1.50
2023-03-31T18:50:35.932Z,1.35
2023-03-31T18:53:03.486Z,1.77
2023-03-31T18:55:30.377Z,1.33
2023-03-31T18:57:57.955Z,1.15
2023-03-31T19:00:24.645Z,1.13
2023-03-31T19:02:52.055Z,1.33
2023-03-31T19:05:19.072Z,1.45
2023-03-31T19:07:45.835Z,1.13
2023-03-31T19:10:13.275Z,0.90
2023-03-31T19:12:40.156Z,0.90
2023-03-31T19:15:07.778Z,1.55
2023-03-31T19:17:34.482Z,1.00
2023-03-31T19:20:01.365Z,1.20
2023-03-31T19:22:29.805Z,1.10
2023-03-31T19:24:56.781Z,1.00
2023-03-31T19:27:23.758Z,0.90
2023-03-31T19:29:50.904Z,1.33
2023-03-31T19:32:17.885Z,0.93
2023-03-31T19:34:46.220Z,1.27
2023-03-31T19:37:13.719Z,1.52
2023-03-31T19:39:40.551Z,1.30
2023-03-31T19:42:07.252Z,1.25
2023-03-31T19:44:33.889Z,1.52
2023-03-31T19:47:00.584Z,1.77
2023-03-31T19:49:27.745Z,1.52
2023-03-31T19:51:56.918Z,1.40
2023-03-31T19:54:23.597Z,1.63
2023-03-31T19:56:50.480Z,1.60
2023-03-31T19:59:17.568Z,2.03
2023-03-31T20:01:44.447Z,1.30
2023-03-31T20:04:12.165Z,1.13
2023-03-31T20:06:38.960Z,1.38
2023-03-31T20:09:06.341Z,1.33
2023-03-31T20:11:33.360Z,1.13
2023-03-31T20:14:01.191Z,1.17
2023-03-31T20:16:29.835Z,1.67
2023-03-31T20:19:04.086Z,1.52
2023-03-31T20:21:33.287Z,0.90
2023-03-31T20:24:00.166Z,1.27
2023-03-31T20:26:29.532Z,1.23
2023-03-31T20:28:58.081Z,0.82
2023-03-31T20:31:30.661Z,0.90
2023-03-31T20:33:57.877Z,0.98
2023-03-31T20:36:28.968Z,0.80
2023-03-31T20:38:55.683Z,0.60
2023-03-31T20:41:32.010Z,0.93
2023-03-31T20:43:59.334Z,0.95
2023-03-31T20:46:26.533Z,0.90
2023-03-31T20:48:55.931Z,1.38
2023-03-31T20:51:33.867Z,1.00
2023-03-31T20:54:01.661Z,1.25
2023-03-31T20:56:31.683Z,1.30
2023-03-31T20:58:59.713Z,0.90
2023-03-31T21:01:28.959Z,2.05
2023-03-31T21:04:00.734Z,1.10
2023-03-31T21:06:39.516Z,0.80
2023-03-31T21:09:06.883Z,1.02
2023-03-31T21:11:34.216Z,0.60
2023-03-31T21:14:02.687Z,0.50
2023-03-31T21:16:29.403Z,0.60
2023-03-31T21:18:56.985Z,0.55
2023-03-31T21:21:24.923Z,0.95
2023-03-31T21:23:51.819Z,0.50
2023-03-31T21:26:18.752Z,0.70
2023-03-31T21:28:45.898Z,0.57
2023-03-31T21:31:15.390Z,0.68
2023-03-31T21:33:43.461Z,0.80
2023-03-31T21:36:13.262Z,1.00
2023-03-31T21:38:40.632Z,0.77
2023-03-31T21:41:22.708Z,0.85
2023-03-31T21:43:50.863Z,0.85
2023-03-31T21:46:20.323Z,0.95
2023-03-31T21:48:50.494Z,0.70
2023-03-31T21:51:18.566Z,1.55
2023-03-31T21:53:45.303Z,1.40
2023-03-31T21:56:12.299Z,1.10
2023-03-31T21:58:38.960Z,0.90
2023-03-31T22:01:06.336Z,1.27
2023-03-31T22:03:34.628Z,1.35
2023-03-31T22:06:03.412Z,1.17
2023-03-31T22:08:31.601Z,1.63
2023-03-31T22:11:02.056Z,1.10
2023-03-31T22:13:29.521Z,1.30
2023-03-31T22:15:56.600Z,1.38
2023-03-31T22:18:23.786Z,0.93
2023-03-31T22:20:50.821Z,0.80
2023-03-31T22:23:17.785Z,1.30
2023-03-31T22:25:44.416Z,1.00
2023-03-31T22:28:11.699Z,1.30
2023-03-31T22:30:38.375Z,0.80
2023-03-31T22:33:05.564Z,1.42
2023-03-31T22:35:32.502Z,1.15
2023-03-31T22:37:59.354Z,1.30
2023-03-31T22:40:26.299Z,0.80
2023-03-31T22:42:54.804Z,0.85
2023-03-31T22:45:21.573Z,1.27
2023-03-31T22:47:48.319Z,0.90
2023-03-31T22:50:15.230Z,1.00
2023-03-31T22:52:41.887Z,0.80
2023-03-31T22:55:08.781Z,1.10
2023-03-31T22:57:35.625Z,1.10
2023-03-31T23:00:03.500Z,1.23
2023-03-31T23:02:30.250Z,1.00
2023-03-31T23:04:56.967Z,1.08
2023-03-31T23:07:23.661Z,1.10
2023-03-31T23:09:50.527Z,0.75
2023-03-31T23:12:17.405Z,0.93
2023-03-31T23:14:44.058Z,1.15
2023-03-31T23:17:10.731Z,0.93
2023-03-31T23:19:38.807Z,1.60
2023-03-31T23:22:06.112Z,1.50
2023-03-31T23:24:32.973Z,0.90
2023-03-31T23:26:59.825Z,1.67
2023-03-31T23:29:27.372Z,1.13
2023-03-31T23:31:54.219Z,1.25
2023-03-31T23:34:21.265Z,1.38
2023-03-31T23:36:48.328Z,1.30
2023-03-31T23:39:15.281Z,1.08
2023-03-31T23:41:42.100Z,1.38
2023-03-31T23:44:08.776Z,2.15
2023-03-31T23:46:37.716Z,1.27
2023-03-31T23:49:05.031Z,1.58
2023-03-31T23:51:31.772Z,1.02
2023-03-31T23:53:58.470Z,1.10
2023-03-31T23:56:27.106Z,1.00
2023-03-31T23:58:54.114Z,0.90
